Terminal Aerodrome Forecast
Issued by NWS Twin Cities, MN

Home | Current Version | Previous Version | Text Only | Print | Product List | Glossary On
Versions: 1 2 3 4 5 6 7 8 9 10 11 12 13 14 15 16 17 18 19
645
FTUS43 KMPX 281720
TAFSTC
TAF
KSTC 281720Z 2818/2918 16012G18KT P6SM SCT035 BKN060
     FM290000 14008KT P6SM SCT025 BKN080
     FM290800 16005KT 3SM BR SCT005 BKN060 PROB30 2908/2912 2SM
      -TSRA BR BKN005 BKN050CB
     FM291400 18008KT P6SM BKN060=

USA.gov is the U.S. government's official web portal to all federal, state and local government web resources and services.